Terminal Aerodrome Forecast
Issued by NWS

Home | Current Version | Previous Version | Text Only | Print | Product List | Glossary On
Versions: 1 2 3 4 5 6 7 8 9 10 11 12 13 14 15 16 17 18 19 20 21 22 23 24 25 26 27 28
656
FTUS45 KREV 221144
TAFCXP
TAF
KCXP 221144Z 2212/2312 14010KT 1SM -SN OVC005 WS020/24040KT
     FM221800 20014G24KT 3SM -SN SCT008 BKN015 OVC020 WS020/24040KT
     FM230000 19008KT 1SM -SN BKN008 OVC015
     FM231100 22008KT 5SM -SHSN BKN015 OVC025=

USA.gov is the U.S. government's official web portal to all federal, state and local government web resources and services.